TAF KIND
KIND 280520Z 2806/2912 28007KT P6SM SKC FM281600 29011G19KT P6SM SKC FM282100 30013KT P6SM SKC FM282300 30008KT P6SM SKC FM290400 28004KT P6SM SKC=
METAR KIND
WC KIND
WS KIND
WV KIND